Andover, Connecticut
Current Conditions -  °F | °C
As of 6:52 PM on Friday 19 Dec 2014 (Local Time) from KIJD Reporting Station
Overcast Overcast  
Wind Chill: 27°   Ceiling: 3200
Heat Index: 32°   Visibility: 10mi
Dew Point: 21°   Wind: 5mph
Humidity: 64%   Direction: 310°NW
Pressure: 30.09"   Gusts: NA
Location:  41.74°N, 72.37°W
Report Text: KIJD 192352Z AUTO 31004KT 10SM OVC032 00/M06 A3009 RMK AO2 SLP190 T00001061 10017 20000 53021
Loading
Personal Weather Stations






























Interactive Weather Map New forecast layout! Learn more

10-Day Weather Forecast

Advertisements
Track Severe Weather on mobile